sensor_id;sensor_type;location;lat;lon;timestamp;pressure;altitude;pressure_sealevel;temperature;humidity
21658;BME280;10990;48.174;9.782;2023-07-13T00:01:26;90939.84;;;19.75;100.00
21658;BME280;10990;48.174;9.782;2023-07-13T00:03:54;90944.44;;;19.66;100.00
21658;BME280;10990;48.174;9.782;2023-07-13T00:06:21;90965.28;;;19.52;100.00
21658;BME280;10990;48.174;9.782;2023-07-13T00:08:47;90947.56;;;19.59;100.00
21658;BME280;10990;48.174;9.782;2023-07-13T00:11:15;90925.34;;;19.67;100.00
21658;BME280;10990;48.174;9.782;2023-07-13T00:13:43;90917.31;;;19.67;100.00
21658;BME280;10990;48.174;9.782;2023-07-13T00:16:11;90922.03;;;19.62;100.00
21658;BME280;10990;48.174;9.782;2023-07-13T00:18:39;90919.03;;;19.72;100.00
21658;BME280;10990;48.174;9.782;2023-07-13T00:21:07;90910.81;;;19.77;100.00
21658;BME280;10990;48.174;9.782;2023-07-13T00:23:35;90921.06;;;19.75;100.00
21658;BME280;10990;48.174;9.782;2023-07-13T00:26:03;90939.53;;;19.59;100.00
21658;BME280;10990;48.174;9.782;2023-07-13T00:28:30;90978.19;;;19.49;100.00
21658;BME280;10990;48.174;9.782;2023-07-13T00:30:57;90990.44;;;19.59;100.00
21658;BME280;10990;48.174;9.782;2023-07-13T00:33:24;91056.81;;;19.45;100.00
21658;BME280;10990;48.174;9.782;2023-07-13T00:35:51;91100.81;;;19.35;100.00
21658;BME280;10990;48.174;9.782;2023-07-13T00:38:19;91123.97;;;19.48;100.00
21658;BME280;10990;48.174;9.782;2023-07-13T00:40:46;91175.50;;;19.54;100.00
21658;BME280;10990;48.174;9.782;2023-07-13T00:43:15;91210.16;;;19.51;100.00
21658;BME280;10990;48.174;9.782;2023-07-13T00:46:10;91277.13;;;19.51;100.00
21658;BME280;10990;48.174;9.782;2023-07-13T00:48:38;91326.44;;;19.41;100.00
21658;BME280;10990;48.174;9.782;2023-07-13T00:51:05;91344.44;;;19.49;100.00
21658;BME280;10990;48.174;9.782;2023-07-13T00:53:34;91412.47;;;19.39;100.00
21658;BME280;10990;48.174;9.782;2023-07-13T00:56:01;91502.59;;;19.35;100.00
21658;BME280;10990;48.174;9.782;2023-07-13T00:58:29;91574.88;;;19.26;100.00
21658;BME280;10990;48.174;9.782;2023-07-13T01:00:57;91592.41;;;19.33;100.00
21658;BME280;10990;48.174;9.782;2023-07-13T01:03:23;91634.31;;;19.15;100.00
21658;BME280;10990;48.174;9.782;2023-07-13T01:05:51;91723.47;;;18.74;100.00
21658;BME280;10990;48.174;9.782;2023-07-13T01:08:19;91747.34;;;18.70;100.00
21658;BME280;10990;48.174;9.782;2023-07-13T01:10:56;91752.09;;;18.73;100.00
21658;BME280;10990;48.174;9.782;2023-07-13T01:13:23;91757.78;;;18.99;100.00
21658;BME280;10990;48.174;9.782;2023-07-13T01:15:51;91808.47;;;18.96;100.00
21658;BME280;10990;48.174;9.782;2023-07-13T01:18:20;91857.34;;;18.88;100.00
21658;BME280;10990;48.174;9.782;2023-07-13T01:20:52;91918.56;;;18.75;100.00
21658;BME280;10990;48.174;9.782;2023-07-13T01:23:19;91937.84;;;18.91;100.00
21658;BME280;10990;48.174;9.782;2023-07-13T01:25:48;91944.59;;;18.89;100.00
21658;BME280;10990;48.174;9.782;2023-07-13T01:28:15;91970.41;;;18.98;100.00
21658;BME280;10990;48.174;9.782;2023-07-13T01:30:42;92010.72;;;18.88;100.00
21658;BME280;10990;48.174;9.782;2023-07-13T01:33:12;92052.84;;;18.83;100.00
21658;BME280;10990;48.174;9.782;2023-07-13T01:35:39;92065.38;;;18.87;100.00
21658;BME280;10990;48.174;9.782;2023-07-13T01:38:08;92101.25;;;18.62;100.00
21658;BME280;10990;48.174;9.782;2023-07-13T01:40:37;92076.94;;;18.83;100.00
21658;BME280;10990;48.174;9.782;2023-07-13T01:43:04;92080.06;;;18.66;100.00
21658;BME280;10990;48.174;9.782;2023-07-13T01:45:31;92078.69;;;18.68;100.00
21658;BME280;10990;48.174;9.782;2023-07-13T01:47:58;92052.84;;;18.83;100.00
21658;BME280;10990;48.174;9.782;2023-07-13T01:50:25;92057.09;;;18.84;100.00
21658;BME280;10990;48.174;9.782;2023-07-13T01:52:52;92096.91;;;18.66;100.00
21658;BME280;10990;48.174;9.782;2023-07-13T01:55:20;92091.84;;;18.65;100.00
21658;BME280;10990;48.174;9.782;2023-07-13T01:57:47;92079.31;;;18.60;100.00
21658;BME280;10990;48.174;9.782;2023-07-13T02:00:14;92091.44;;;18.52;100.00
21658;BME280;10990;48.174;9.782;2023-07-13T02:02:41;92086.44;;;18.46;100.00
21658;BME280;10990;48.174;9.782;2023-07-13T02:05:10;92072.91;;;18.37;100.00
21658;BME280;10990;48.174;9.782;2023-07-13T02:07:37;92069.88;;;18.44;100.00
21658;BME280;10990;48.174;9.782;2023-07-13T02:10:05;92066.56;;;18.52;100.00
21658;BME280;10990;48.174;9.782;2023-07-13T02:12:33;92072.59;;;18.38;100.00
21658;BME280;10990;48.174;9.782;2023-07-13T02:15:01;92068.88;;;18.40;100.00
21658;BME280;10990;48.174;9.782;2023-07-13T02:17:28;92086.88;;;18.34;100.00
21658;BME280;10990;48.174;9.782;2023-07-13T02:19:55;92108.59;;;18.27;100.00
21658;BME280;10990;48.174;9.782;2023-07-13T02:22:22;92112.22;;;18.12;100.00
21658;BME280;10990;48.174;9.782;2023-07-13T02:24:49;92107.22;;;18.06;100.00
21658;BME280;10990;48.174;9.782;2023-07-13T02:27:17;92094.94;;;18.05;100.00
21658;BME280;10990;48.174;9.782;2023-07-13T02:29:45;92127.56;;;18.02;100.00
21658;BME280;10990;48.174;9.782;2023-07-13T02:32:12;92137.72;;;18.05;100.00
21658;BME280;10990;48.174;9.782;2023-07-13T02:34:40;92165.63;;;17.94;100.00
21658;BME280;10990;48.174;9.782;2023-07-13T02:37:07;92189.06;;;18.02;100.00
21658;BME280;10990;48.174;9.782;2023-07-13T02:39:35;92197.44;;;17.90;100.00
21658;BME280;10990;48.174;9.782;2023-07-13T02:42:03;92206.03;;;17.87;100.00
21658;BME280;10990;48.174;9.782;2023-07-13T02:44:30;92234.66;;;17.81;100.00
21658;BME280;10990;48.174;9.782;2023-07-13T02:46:58;92210.00;;;17.89;100.00
21658;BME280;10990;48.174;9.782;2023-07-13T02:49:24;92236.19;;;17.92;100.00
21658;BME280;10990;48.174;9.782;2023-07-13T02:51:51;92257.91;;;17.86;100.00
21658;BME280;10990;48.174;9.782;2023-07-13T02:54:18;92267.84;;;17.70;100.00
21658;BME280;10990;48.174;9.782;2023-07-13T02:56:45;92280.78;;;17.47;100.00
21658;BME280;10990;48.174;9.782;2023-07-13T02:59:12;92263.94;;;17.52;100.00
21658;BME280;10990;48.174;9.782;2023-07-13T03:01:39;92261.50;;;17.61;100.00
21658;BME280;10990;48.174;9.782;2023-07-13T03:04:07;92293.59;;;17.51;100.00
21658;BME280;10990;48.174;9.782;2023-07-13T03:06:34;92292.34;;;17.33;100.00
21658;BME280;10990;48.174;9.782;2023-07-13T03:09:02;92247.84;;;17.62;100.00
21658;BME280;10990;48.174;9.782;2023-07-13T03:11:31;92277.84;;;17.49;100.00
21658;BME280;10990;48.174;9.782;2023-07-13T03:14:07;92275.88;;;17.65;100.00
21658;BME280;10990;48.174;9.782;2023-07-13T03:16:36;92294.13;;;17.53;100.00
21658;BME280;10990;48.174;9.782;2023-07-13T03:19:03;92301.03;;;17.59;100.00
21658;BME280;10990;48.174;9.782;2023-07-13T03:21:31;92327.06;;;17.38;100.00
21658;BME280;10990;48.174;9.782;2023-07-13T03:23:58;92283.41;;;17.58;100.00
21658;BME280;10990;48.174;9.782;2023-07-13T03:26:25;92281.78;;;17.62;100.00
21658;BME280;10990;48.174;9.782;2023-07-13T03:28:51;92291.19;;;17.54;100.00
21658;BME280;10990;48.174;9.782;2023-07-13T03:31:24;92311.28;;;17.41;100.00
21658;BME280;10990;48.174;9.782;2023-07-13T03:33:51;92285.31;;;17.57;100.00
21658;BME280;10990;48.174;9.782;2023-07-13T03:36:20;92302.38;;;17.56;100.00
21658;BME280;10990;48.174;9.782;2023-07-13T03:38:51;92325.16;;;17.48;100.00
21658;BME280;10990;48.174;9.782;2023-07-13T03:41:22;92325.09;;;17.54;100.00
21658;BME280;10990;48.174;9.782;2023-07-13T03:43:52;92337.66;;;17.58;100.00
21658;BME280;10990;48.174;9.782;2023-07-13T03:46:20;92393.28;;;17.46;100.00
21658;BME280;10990;48.174;9.782;2023-07-13T03:48:47;92430.09;;;17.64;100.00
21658;BME280;10990;48.174;9.782;2023-07-13T03:51:16;92427.38;;;17.75;100.00
21658;BME280;10990;48.174;9.782;2023-07-13T03:53:44;92457.56;;;17.75;100.00
21658;BME280;10990;48.174;9.782;2023-07-13T03:56:15;92507.59;;;17.54;100.00
21658;BME280;10990;48.174;9.782;2023-07-13T03:58:45;92514.81;;;17.59;100.00
21658;BME280;10990;48.174;9.782;2023-07-13T04:01:21;92504.91;;;17.64;100.00
21658;BME280;10990;48.174;9.782;2023-07-13T04:03:48;92518.56;;;17.63;100.00
21658;BME280;10990;48.174;9.782;2023-07-13T04:06:16;92532.16;;;17.61;100.00
21658;BME280;10990;48.174;9.782;2023-07-13T04:08:48;92553.00;;;17.59;100.00
21658;BME280;10990;48.174;9.782;2023-07-13T04:11:17;92568.00;;;17.60;100.00
21658;BME280;10990;48.174;9.782;2023-07-13T04:13:44;92568.25;;;17.64;100.00
21658;BME280;10990;48.174;9.782;2023-07-13T04:16:11;92571.75;;;17.54;100.00
21658;BME280;10990;48.174;9.782;2023-07-13T04:18:38;92606.72;;;17.42;100.00
21658;BME280;10990;48.174;9.782;2023-07-13T04:21:05;92608.59;;;17.57;100.00
21658;BME280;10990;48.174;9.782;2023-07-13T04:23:32;92615.28;;;17.55;100.00
21658;BME280;10990;48.174;9.782;2023-07-13T04:25:58;92627.28;;;17.47;100.00
21658;BME280;10990;48.174;9.782;2023-07-13T04:28:27;92656.69;;;17.42;100.00
21658;BME280;10990;48.174;9.782;2023-07-13T04:30:54;92655.09;;;17.56;100.00
21658;BME280;10990;48.174;9.782;2023-07-13T04:33:21;92670.84;;;17.68;100.00
21658;BME280;10990;48.174;9.782;2023-07-13T04:35:49;92681.03;;;17.66;100.00
21658;BME280;10990;48.174;9.782;2023-07-13T04:38:21;92694.13;;;17.57;100.00
21658;BME280;10990;48.174;9.782;2023-07-13T04:40:49;92690.09;;;17.65;100.00
21658;BME280;10990;48.174;9.782;2023-07-13T04:43:17;92681.06;;;17.81;100.00
21658;BME280;10990;48.174;9.782;2023-07-13T04:45:45;92724.53;;;17.51;100.00
21658;BME280;10990;48.174;9.782;2023-07-13T04:48:12;92706.97;;;17.65;100.00
21658;BME280;10990;48.174;9.782;2023-07-13T04:50:39;92699.50;;;17.83;100.00
21658;BME280;10990;48.174;9.782;2023-07-13T04:53:05;92694.44;;;17.91;100.00
21658;BME280;10990;48.174;9.782;2023-07-13T04:55:32;92718.19;;;17.73;100.00
21658;BME280;10990;48.174;9.782;2023-07-13T04:57:59;92678.63;;;17.54;100.00
21658;BME280;10990;48.174;9.782;2023-07-13T05:00:26;92662.09;;;17.83;100.00
21658;BME280;10990;48.174;9.782;2023-07-13T05:02:56;92688.25;;;17.76;100.00
21658;BME280;10990;48.174;9.782;2023-07-13T05:05:24;92720.84;;;17.67;100.00
21658;BME280;10990;48.174;9.782;2023-07-13T05:07:51;92701.09;;;17.84;100.00
21658;BME280;10990;48.174;9.782;2023-07-13T05:10:18;92725.69;;;17.81;100.00
21658;BME280;10990;48.174;9.782;2023-07-13T05:12:45;92729.19;;;18.02;100.00
21658;BME280;10990;48.174;9.782;2023-07-13T05:15:12;92804.06;;;18.02;100.00
21658;BME280;10990;48.174;9.782;2023-07-13T05:17:39;92800.59;;;18.11;100.00
21658;BME280;10990;48.174;9.782;2023-07-13T05:20:08;92811.47;;;17.74;100.00
21658;BME280;10990;48.174;9.782;2023-07-13T05:22:35;92799.25;;;17.88;100.00
21658;BME280;10990;48.174;9.782;2023-07-13T05:25:04;92770.06;;;17.82;100.00
21658;BME280;10990;48.174;9.782;2023-07-13T05:27:31;92775.69;;;17.90;100.00
21658;BME280;10990;48.174;9.782;2023-07-13T05:29:57;92788.56;;;18.04;100.00
21658;BME280;10990;48.174;9.782;2023-07-13T05:32:24;92821.16;;;17.96;100.00
21658;BME280;10990;48.174;9.782;2023-07-13T05:34:51;92785.88;;;17.94;100.00
21658;BME280;10990;48.174;9.782;2023-07-13T05:37:19;92755.66;;;18.29;100.00
21658;BME280;10990;48.174;9.782;2023-07-13T05:39:46;92816.13;;;18.25;100.00
21658;BME280;10990;48.174;9.782;2023-07-13T05:42:13;92823.88;;;18.47;100.00
21658;BME280;10990;48.174;9.782;2023-07-13T05:44:40;92828.69;;;18.50;100.00
21658;BME280;10990;48.174;9.782;2023-07-13T05:47:07;92869.66;;;18.50;100.00
21658;BME280;10990;48.174;9.782;2023-07-13T05:49:33;92891.88;;;18.66;100.00
21658;BME280;10990;48.174;9.782;2023-07-13T05:52:00;92908.22;;;18.80;100.00
21658;BME280;10990;48.174;9.782;2023-07-13T05:54:28;92944.13;;;18.84;100.00
21658;BME280;10990;48.174;9.782;2023-07-13T05:56:55;92971.72;;;18.85;100.00
21658;BME280;10990;48.174;9.782;2023-07-13T05:59:21;93013.75;;;18.99;100.00
21658;BME280;10990;48.174;9.782;2023-07-13T06:01:49;93121.69;;;18.90;100.00
21658;BME280;10990;48.174;9.782;2023-07-13T06:04:17;93151.97;;;18.95;100.00
21658;BME280;10990;48.174;9.782;2023-07-13T06:06:44;93255.66;;;19.05;100.00
21658;BME280;10990;48.174;9.782;2023-07-13T06:09:11;93330.00;;;19.30;100.00
21658;BME280;10990;48.174;9.782;2023-07-13T06:11:39;93316.88;;;20.07;100.00
21658;BME280;10990;48.174;9.782;2023-07-13T06:14:05;93472.88;;;19.73;100.00
21658;BME280;10990;48.174;9.782;2023-07-13T06:16:32;93601.22;;;19.91;100.00
21658;BME280;10990;48.174;9.782;2023-07-13T06:18:59;93670.31;;;19.74;100.00
21658;BME280;10990;48.174;9.782;2023-07-13T06:21:25;93723.25;;;19.62;100.00
21658;BME280;10990;48.174;9.782;2023-07-13T06:23:52;93769.59;;;19.57;100.00
21658;BME280;10990;48.174;9.782;2023-07-13T06:26:20;93782.41;;;19.72;100.00
21658;BME280;10990;48.174;9.782;2023-07-13T06:28:48;93795.59;;;19.79;100.00
21658;BME280;10990;48.174;9.782;2023-07-13T06:31:15;93818.25;;;19.44;100.00
21658;BME280;10990;48.174;9.782;2023-07-13T06:33:43;93803.00;;;19.66;100.00
21658;BME280;10990;48.174;9.782;2023-07-13T06:36:10;93811.25;;;19.87;100.00
21658;BME280;10990;48.174;9.782;2023-07-13T06:38:37;93824.94;;;19.85;100.00
21658;BME280;10990;48.174;9.782;2023-07-13T06:41:05;93850.97;;;19.90;100.00
21658;BME280;10990;48.174;9.782;2023-07-13T06:43:31;93851.16;;;20.05;100.00
21658;BME280;10990;48.174;9.782;2023-07-13T06:45:59;93883.59;;;20.04;100.00
21658;BME280;10990;48.174;9.782;2023-07-13T06:48:27;93936.84;;;20.12;100.00
21658;BME280;10990;48.174;9.782;2023-07-13T06:50:54;93999.44;;;19.96;100.00
21658;BME280;10990;48.174;9.782;2023-07-13T06:53:22;94004.56;;;19.97;100.00
21658;BME280;10990;48.174;9.782;2023-07-13T06:55:49;94004.56;;;20.19;100.00
21658;BME280;10990;48.174;9.782;2023-07-13T06:58:17;94035.56;;;20.10;100.00
21658;BME280;10990;48.174;9.782;2023-07-13T07:00:44;94009.09;;;20.41;100.00
21658;BME280;10990;48.174;9.782;2023-07-13T07:03:12;94030.66;;;20.24;100.00
21658;BME280;10990;48.174;9.782;2023-07-13T07:05:39;94052.38;;;20.61;100.00
21658;BME280;10990;48.174;9.782;2023-07-13T07:10:33;94160.09;;;20.26;100.00
21658;BME280;10990;48.174;9.782;2023-07-13T07:13:00;94165.44;;;20.43;100.00
21658;BME280;10990;48.174;9.782;2023-07-13T07:15:26;94191.56;;;20.47;100.00
21658;BME280;10990;48.174;9.782;2023-07-13T07:17:53;94251.88;;;20.95;100.00
21658;BME280;10990;48.174;9.782;2023-07-13T07:20:21;94337.75;;;21.24;100.00
21658;BME280;10990;48.174;9.782;2023-07-13T07:22:48;94409.94;;;21.49;100.00
21658;BME280;10990;48.174;9.782;2023-07-13T07:25:15;94577.34;;;21.39;100.00
21658;BME280;10990;48.174;9.782;2023-07-13T07:27:42;94648.28;;;20.93;100.00
21658;BME280;10990;48.174;9.782;2023-07-13T07:30:09;94683.84;;;20.83;100.00
21658;BME280;10990;48.174;9.782;2023-07-13T07:32:36;94808.50;;;21.05;100.00
21658;BME280;10990;48.174;9.782;2023-07-13T07:35:04;94832.00;;;20.98;100.00
21658;BME280;10990;48.174;9.782;2023-07-13T07:37:32;94785.28;;;20.64;100.00
21658;BME280;10990;48.174;9.782;2023-07-13T07:39:58;94840.66;;;20.89;100.00
21658;BME280;10990;48.174;9.782;2023-07-13T07:42:25;94911.38;;;21.13;100.00
21658;BME280;10990;48.174;9.782;2023-07-13T07:44:52;94990.00;;;21.50;100.00
21658;BME280;10990;48.174;9.782;2023-07-13T07:47:19;95090.88;;;22.06;100.00
21658;BME280;10990;48.174;9.782;2023-07-13T07:49:45;95193.03;;;22.31;100.00
21658;BME280;10990;48.174;9.782;2023-07-13T07:52:12;95322.41;;;22.67;100.00
21658;BME280;10990;48.174;9.782;2023-07-13T07:54:40;95446.66;;;22.77;100.00
21658;BME280;10990;48.174;9.782;2023-07-13T07:57:07;95578.34;;;22.98;100.00
21658;BME280;10990;48.174;9.782;2023-07-13T07:59:36;95675.88;;;23.86;100.00
21658;BME280;10990;48.174;9.782;2023-07-13T08:02:03;95816.75;;;23.53;100.00
21658;BME280;10990;48.174;9.782;2023-07-13T08:04:30;95836.50;;;23.71;100.00
21658;BME280;10990;48.174;9.782;2023-07-13T08:06:56;95859.75;;;22.92;100.00
21658;BME280;10990;48.174;9.782;2023-07-13T08:09:23;95928.94;;;22.80;100.00
21658;BME280;10990;48.174;9.782;2023-07-13T08:11:51;95910.59;;;22.89;100.00
21658;BME280;10990;48.174;9.782;2023-07-13T08:14:20;95935.38;;;22.79;100.00
21658;BME280;10990;48.174;9.782;2023-07-13T08:16:46;95945.94;;;22.55;100.00
21658;BME280;10990;48.174;9.782;2023-07-13T08:19:13;95954.97;;;22.29;100.00
21658;BME280;10990;48.174;9.782;2023-07-13T08:21:40;95939.22;;;21.81;100.00
21658;BME280;10990;48.174;9.782;2023-07-13T08:24:07;95947.09;;;21.83;100.00
21658;BME280;10990;48.174;9.782;2023-07-13T08:26:34;95966.97;;;21.82;100.00
21658;BME280;10990;48.174;9.782;2023-07-13T08:29:02;95945.25;;;21.70;100.00
21658;BME280;10990;48.174;9.782;2023-07-13T08:31:29;95950.53;;;21.32;100.00
21658;BME280;10990;48.174;9.782;2023-07-13T08:33:55;95966.28;;;21.15;100.00
21658;BME280;10990;48.174;9.782;2023-07-13T08:36:22;95930.25;;;21.29;100.00
21658;BME280;10990;48.174;9.782;2023-07-13T08:38:49;95960.03;;;21.41;100.00
21658;BME280;10990;48.174;9.782;2023-07-13T08:41:17;95983.03;;;22.02;100.00
21658;BME280;10990;48.174;9.782;2023-07-13T08:43:58;96000.00;;;22.60;100.00
21658;BME280;10990;48.174;9.782;2023-07-13T08:46:32;96040.44;;;22.60;100.00
21658;BME280;10990;48.174;9.782;2023-07-13T08:49:03;96041.09;;;22.56;100.00
21658;BME280;10990;48.174;9.782;2023-07-13T08:51:38;96036.00;;;23.11;100.00
21658;BME280;10990;48.174;9.782;2023-07-13T08:54:21;96050.16;;;23.07;100.00
21658;BME280;10990;48.174;9.782;2023-07-13T08:56:50;96050.03;;;23.20;100.00
21658;BME280;10990;48.174;9.782;2023-07-13T08:59:22;96062.53;;;23.71;100.00
21658;BME280;10990;48.174;9.782;2023-07-13T09:02:01;96069.81;;;23.70;100.00
21658;BME280;10990;48.174;9.782;2023-07-13T09:04:36;96096.72;;;22.89;100.00
21658;BME280;10990;48.174;9.782;2023-07-13T09:07:10;96076.13;;;23.33;100.00
21658;BME280;10990;48.174;9.782;2023-07-13T09:09:50;96090.59;;;23.13;100.00
21658;BME280;10990;48.174;9.782;2023-07-13T09:12:25;96101.03;;;23.35;100.00
21658;BME280;10990;48.174;9.782;2023-07-13T09:14:56;96092.63;;;23.68;100.00
21658;BME280;10990;48.174;9.782;2023-07-13T09:17:27;96094.25;;;23.50;100.00
21658;BME280;10990;48.174;9.782;2023-07-13T09:19:58;96097.84;;;23.44;100.00
21658;BME280;10990;48.174;9.782;2023-07-13T09:22:27;96099.06;;;23.17;100.00
21658;BME280;10990;48.174;9.782;2023-07-13T09:25:00;96093.13;;;24.08;100.00
21658;BME280;10990;48.174;9.782;2023-07-13T09:27:31;96096.34;;;24.35;100.00
21658;BME280;10990;48.174;9.782;2023-07-13T09:30:15;96084.88;;;24.77;100.00
21658;BME280;10990;48.174;9.782;2023-07-13T09:32:50;96086.97;;;25.05;100.00
21658;BME280;10990;48.174;9.782;2023-07-13T09:35:21;96089.91;;;25.34;100.00
21658;BME280;10990;48.174;9.782;2023-07-13T09:37:51;96097.34;;;25.08;100.00
21658;BME280;10990;48.174;9.782;2023-07-13T09:40:23;96090.63;;;25.41;100.00
21658;BME280;10990;48.174;9.782;2023-07-13T09:42:52;96094.41;;;25.10;100.00
21658;BME280;10990;48.174;9.782;2023-07-13T09:45:27;96103.56;;;24.23;100.00
21658;BME280;10990;48.174;9.782;2023-07-13T09:48:04;96104.31;;;23.93;100.00
21658;BME280;10990;48.174;9.782;2023-07-13T09:50:31;96097.06;;;24.68;100.00
21658;BME280;10990;48.174;9.782;2023-07-13T09:52:58;96084.03;;;25.37;100.00
21658;BME280;10990;48.174;9.782;2023-07-13T09:55:30;96082.88;;;25.56;100.00
21658;BME280;10990;48.174;9.782;2023-07-13T09:58:02;96088.16;;;24.79;100.00
21658;BME280;10990;48.174;9.782;2023-07-13T10:00:30;96090.78;;;25.46;100.00
21658;BME280;10990;48.174;9.782;2023-07-13T10:03:01;96078.66;;;25.60;100.00
21658;BME280;10990;48.174;9.782;2023-07-13T10:05:37;96098.84;;;24.19;100.00
21658;BME280;10990;48.174;9.782;2023-07-13T10:08:04;96092.97;;;24.77;100.00
21658;BME280;10990;48.174;9.782;2023-07-13T10:10:33;96083.78;;;25.26;100.00
21658;BME280;10990;48.174;9.782;2023-07-13T10:13:02;96092.47;;;24.68;100.00
21658;BME280;10990;48.174;9.782;2023-07-13T10:15:31;96104.81;;;24.64;100.00
21658;BME280;10990;48.174;9.782;2023-07-13T10:17:59;96098.31;;;24.83;100.00
21658;BME280;10990;48.174;9.782;2023-07-13T10:20:27;96090.91;;;25.63;100.00
21658;BME280;10990;48.174;9.782;2023-07-13T10:22:57;96094.25;;;25.88;100.00
21658;BME280;10990;48.174;9.782;2023-07-13T10:25:27;96096.81;;;25.71;100.00
21658;BME280;10990;48.174;9.782;2023-07-13T10:28:02;96084.81;;;26.14;100.00
21658;BME280;10990;48.174;9.782;2023-07-13T10:30:34;96097.31;;;24.48;100.00
21658;BME280;10990;48.174;9.782;2023-07-13T10:33:03;96113.63;;;23.73;100.00
21658;BME280;10990;48.174;9.782;2023-07-13T10:35:33;96106.34;;;24.35;100.00
21658;BME280;10990;48.174;9.782;2023-07-13T10:38:02;96086.97;;;25.05;100.00
21658;BME280;10990;48.174;9.782;2023-07-13T10:40:37;96073.41;;;25.23;100.00
21658;BME280;10990;48.174;9.782;2023-07-13T10:43:11;96074.28;;;24.75;100.00
21658;BME280;10990;48.174;9.782;2023-07-13T10:45:40;96069.38;;;25.68;100.00
21658;BME280;10990;48.174;9.782;2023-07-13T10:48:09;96075.16;;;26.07;100.00
21658;BME280;10990;48.174;9.782;2023-07-13T10:50:41;96070.78;;;26.06;100.00
21658;BME280;10990;48.174;9.782;2023-07-13T10:53:19;96072.06;;;25.80;100.00
21658;BME280;10990;48.174;9.782;2023-07-13T10:55:58;96078.41;;;25.50;99.89
21658;BME280;10990;48.174;9.782;2023-07-13T10:58:29;96090.56;;;23.45;100.00
21658;BME280;10990;48.174;9.782;2023-07-13T11:01:03;96079.97;;;24.55;100.00
21658;BME280;10990;48.174;9.782;2023-07-13T11:03:36;96069.22;;;25.51;100.00
21658;BME280;10990;48.174;9.782;2023-07-13T11:06:09;96066.94;;;26.02;100.00
21658;BME280;10990;48.174;9.782;2023-07-13T11:08:38;96066.28;;;25.64;100.00
21658;BME280;10990;48.174;9.782;2023-07-13T11:11:36;96060.59;;;25.31;100.00
21658;BME280;10990;48.174;9.782;2023-07-13T11:14:04;96066.72;;;25.38;100.00
21658;BME280;10990;48.174;9.782;2023-07-13T11:16:35;96067.91;;;25.42;100.00
21658;BME280;10990;48.174;9.782;2023-07-13T11:19:28;96067.34;;;25.63;100.00
21658;BME280;10990;48.174;9.782;2023-07-13T11:22:19;96058.28;;;25.58;100.00
21658;BME280;10990;48.174;9.782;2023-07-13T11:24:52;96069.94;;;25.70;100.00
21658;BME280;10990;48.174;9.782;2023-07-13T11:27:37;96060.06;;;25.87;100.00
21658;BME280;10990;48.174;9.782;2023-07-13T11:30:25;96066.41;;;25.81;100.00
21658;BME280;10990;48.174;9.782;2023-07-13T11:33:11;96064.63;;;25.40;100.00
21658;BME280;10990;48.174;9.782;2023-07-13T11:35:45;96075.47;;;25.52;100.00
21658;BME280;10990;48.174;9.782;2023-07-13T11:38:17;96063.34;;;25.54;100.00
21658;BME280;10990;48.174;9.782;2023-07-13T11:40:46;96074.38;;;24.99;100.00
21658;BME280;10990;48.174;9.782;2023-07-13T11:43:14;96065.31;;;24.75;100.00
21658;BME280;10990;48.174;9.782;2023-07-13T11:45:41;96066.44;;;24.86;100.00
21658;BME280;10990;48.174;9.782;2023-07-13T11:48:22;96066.53;;;24.60;100.00
21658;BME280;10990;48.174;9.782;2023-07-13T11:50:51;96055.59;;;24.86;100.00
21658;BME280;10990;48.174;9.782;2023-07-13T11:53:22;96058.75;;;25.13;100.00
21658;BME280;10990;48.174;9.782;2023-07-13T11:55:50;96070.22;;;24.29;100.00
21658;BME280;10990;48.174;9.782;2023-07-13T11:58:21;96078.06;;;23.76;100.00
21658;BME280;10990;48.174;9.782;2023-07-13T12:00:50;96073.28;;;23.78;100.00
21658;BME280;10990;48.174;9.782;2023-07-13T12:03:22;96064.16;;;23.97;100.00
21658;BME280;10990;48.174;9.782;2023-07-13T12:05:58;96066.78;;;24.04;100.00
21658;BME280;10990;48.174;9.782;2023-07-13T12:08:28;96059.19;;;24.49;100.00
21658;BME280;10990;48.174;9.782;2023-07-13T12:11:00;96055.91;;;25.08;100.00
21658;BME280;10990;48.174;9.782;2023-07-13T12:13:35;96054.28;;;25.07;100.00
21658;BME280;10990;48.174;9.782;2023-07-13T12:16:11;96060.09;;;24.62;100.00
21658;BME280;10990;48.174;9.782;2023-07-13T12:18:38;96056.03;;;24.71;100.00
21658;BME280;10990;48.174;9.782;2023-07-13T12:21:05;96049.22;;;25.10;100.00
21658;BME280;10990;48.174;9.782;2023-07-13T12:23:38;96046.91;;;25.25;100.00
21658;BME280;10990;48.174;9.782;2023-07-13T12:26:06;96038.38;;;25.40;100.00
21658;BME280;10990;48.174;9.782;2023-07-13T12:28:36;96040.72;;;24.95;100.00
21658;BME280;10990;48.174;9.782;2023-07-13T12:31:08;96036.00;;;25.44;100.00
21658;BME280;10990;48.174;9.782;2023-07-13T12:33:56;96043.22;;;25.74;100.00
21658;BME280;10990;48.174;9.782;2023-07-13T12:36:23;96049.34;;;25.69;100.00
21658;BME280;10990;48.174;9.782;2023-07-13T12:38:52;96045.94;;;25.85;100.00
21658;BME280;10990;48.174;9.782;2023-07-13T12:41:19;96048.00;;;25.36;100.00
21658;BME280;10990;48.174;9.782;2023-07-13T12:43:46;96057.25;;;25.17;100.00
21658;BME280;10990;48.174;9.782;2023-07-13T12:46:18;96042.81;;;25.23;100.00
21658;BME280;10990;48.174;9.782;2023-07-13T12:48:49;96039.75;;;24.89;100.00
21658;BME280;10990;48.174;9.782;2023-07-13T12:51:16;96033.50;;;25.42;100.00
21658;BME280;10990;48.174;9.782;2023-07-13T12:53:48;96032.47;;;25.32;100.00
21658;BME280;10990;48.174;9.782;2023-07-13T12:56:21;96031.41;;;25.33;100.00
21658;BME280;10990;48.174;9.782;2023-07-13T12:58:50;96032.41;;;25.20;100.00
21658;BME280;10990;48.174;9.782;2023-07-13T13:01:21;96040.09;;;25.23;100.00
21658;BME280;10990;48.174;9.782;2023-07-13T13:03:50;96039.66;;;24.96;100.00